sensor_id;sensor_type;location;lat;lon;timestamp;P1;durP1;ratioP1;P2;durP2;ratioP2
2912;SDS011;1466;48.778;9.166;2023-05-09T00:02:10;29.10;;;15.53;;
2912;SDS011;1466;48.778;9.166;2023-05-09T00:04:36;40.13;;;17.00;;
2912;SDS011;1466;48.778;9.166;2023-05-09T00:07:02;41.13;;;16.05;;
2912;SDS011;1466;48.778;9.166;2023-05-09T00:09:27;24.10;;;14.10;;
2912;SDS011;1466;48.778;9.166;2023-05-09T00:11:53;29.23;;;16.20;;
2912;SDS011;1466;48.778;9.166;2023-05-09T00:14:19;39.70;;;17.50;;
2912;SDS011;1466;48.778;9.166;2023-05-09T00:16:44;29.57;;;14.97;;
2912;SDS011;1466;48.778;9.166;2023-05-09T00:19:10;26.30;;;16.13;;
2912;SDS011;1466;48.778;9.166;2023-05-09T00:21:36;33.33;;;15.98;;
2912;SDS011;1466;48.778;9.166;2023-05-09T00:24:02;31.50;;;16.23;;
2912;SDS011;1466;48.778;9.166;2023-05-09T00:26:28;35.97;;;17.20;;
2912;SDS011;1466;48.778;9.166;2023-05-09T00:28:54;31.60;;;15.70;;
2912;SDS011;1466;48.778;9.166;2023-05-09T00:31:20;38.80;;;17.10;;
2912;SDS011;1466;48.778;9.166;2023-05-09T00:33:45;33.33;;;16.53;;
2912;SDS011;1466;48.778;9.166;2023-05-09T00:36:11;28.57;;;14.53;;
2912;SDS011;1466;48.778;9.166;2023-05-09T00:38:36;29.33;;;16.10;;
2912;SDS011;1466;48.778;9.166;2023-05-09T00:41:02;43.10;;;18.03;;
2912;SDS011;1466;48.778;9.166;2023-05-09T00:43:28;35.03;;;16.17;;
2912;SDS011;1466;48.778;9.166;2023-05-09T00:45:54;27.20;;;15.50;;
2912;SDS011;1466;48.778;9.166;2023-05-09T00:48:20;31.13;;;16.67;;
2912;SDS011;1466;48.778;9.166;2023-05-09T00:50:46;32.33;;;16.42;;
2912;SDS011;1466;48.778;9.166;2023-05-09T00:53:16;29.30;;;16.25;;
2912;SDS011;1466;48.778;9.166;2023-05-09T00:55:43;34.55;;;17.70;;
2912;SDS011;1466;48.778;9.166;2023-05-09T00:58:09;36.23;;;18.63;;
2912;SDS011;1466;48.778;9.166;2023-05-09T01:00:35;36.07;;;17.80;;
2912;SDS011;1466;48.778;9.166;2023-05-09T01:03:01;38.60;;;19.13;;
2912;SDS011;1466;48.778;9.166;2023-05-09T01:08:21;37.13;;;18.60;;
2912;SDS011;1466;48.778;9.166;2023-05-09T01:11:12;42.20;;;18.83;;
2912;SDS011;1466;48.778;9.166;2023-05-09T01:13:56;36.20;;;18.60;;
2912;SDS011;1466;48.778;9.166;2023-05-09T01:16:38;44.88;;;18.95;;
2912;SDS011;1466;48.778;9.166;2023-05-09T01:21:54;40.58;;;19.92;;
2912;SDS011;1466;48.778;9.166;2023-05-09T01:29:44;46.05;;;20.48;;
2912;SDS011;1466;48.778;9.166;2023-05-09T01:32:12;47.30;;;19.92;;
2912;SDS011;1466;48.778;9.166;2023-05-09T01:34:44;36.10;;;18.23;;
2912;SDS011;1466;48.778;9.166;2023-05-09T01:37:12;42.72;;;20.98;;
2912;SDS011;1466;48.778;9.166;2023-05-09T01:39:40;42.42;;;19.60;;
2912;SDS011;1466;48.778;9.166;2023-05-09T01:42:08;42.78;;;19.58;;
2912;SDS011;1466;48.778;9.166;2023-05-09T01:44:37;39.55;;;19.52;;
2912;SDS011;1466;48.778;9.166;2023-05-09T01:47:05;47.42;;;21.20;;
2912;SDS011;1466;48.778;9.166;2023-05-09T01:49:32;43.97;;;20.23;;
2912;SDS011;1466;48.778;9.166;2023-05-09T01:52:01;43.47;;;21.20;;
2912;SDS011;1466;48.778;9.166;2023-05-09T01:54:30;41.58;;;21.13;;
2912;SDS011;1466;48.778;9.166;2023-05-09T01:56:58;49.75;;;22.27;;
2912;SDS011;1466;48.778;9.166;2023-05-09T01:59:25;38.38;;;20.17;;
2912;SDS011;1466;48.778;9.166;2023-05-09T02:01:52;44.42;;;20.02;;
2912;SDS011;1466;48.778;9.166;2023-05-09T02:04:19;43.03;;;19.23;;
2912;SDS011;1466;48.778;9.166;2023-05-09T02:06:46;37.47;;;18.35;;
2912;SDS011;1466;48.778;9.166;2023-05-09T02:09:15;37.42;;;19.75;;
2912;SDS011;1466;48.778;9.166;2023-05-09T02:11:42;40.33;;;21.05;;
2912;SDS011;1466;48.778;9.166;2023-05-09T02:14:07;36.90;;;19.47;;
2912;SDS011;1466;48.778;9.166;2023-05-09T02:16:33;43.70;;;20.13;;
2912;SDS011;1466;48.778;9.166;2023-05-09T02:18:59;42.27;;;20.77;;
2912;SDS011;1466;48.778;9.166;2023-05-09T02:21:25;48.67;;;22.27;;
2912;SDS011;1466;48.778;9.166;2023-05-09T02:23:50;32.77;;;18.77;;
2912;SDS011;1466;48.778;9.166;2023-05-09T02:26:16;35.70;;;18.93;;
2912;SDS011;1466;48.778;9.166;2023-05-09T02:28:43;41.33;;;19.13;;
2912;SDS011;1466;48.778;9.166;2023-05-09T02:31:09;38.58;;;19.25;;
2912;SDS011;1466;48.778;9.166;2023-05-09T02:33:38;40.35;;;19.15;;
2912;SDS011;1466;48.778;9.166;2023-05-09T02:36:05;41.00;;;19.60;;
2912;SDS011;1466;48.778;9.166;2023-05-09T02:38:32;42.10;;;20.98;;
2912;SDS011;1466;48.778;9.166;2023-05-09T02:40:59;36.97;;;18.77;;
2912;SDS011;1466;48.778;9.166;2023-05-09T02:43:25;35.77;;;18.10;;
2912;SDS011;1466;48.778;9.166;2023-05-09T02:45:51;50.93;;;22.63;;
2912;SDS011;1466;48.778;9.166;2023-05-09T02:48:16;42.77;;;19.50;;
2912;SDS011;1466;48.778;9.166;2023-05-09T02:50:42;35.20;;;19.20;;
2912;SDS011;1466;48.778;9.166;2023-05-09T02:53:08;32.05;;;18.35;;
2912;SDS011;1466;48.778;9.166;2023-05-09T02:55:33;39.83;;;20.00;;
2912;SDS011;1466;48.778;9.166;2023-05-09T02:57:59;49.10;;;21.77;;
2912;SDS011;1466;48.778;9.166;2023-05-09T03:00:25;34.20;;;18.37;;
2912;SDS011;1466;48.778;9.166;2023-05-09T03:02:51;43.23;;;18.43;;
2912;SDS011;1466;48.778;9.166;2023-05-09T03:05:16;51.33;;;22.37;;
2912;SDS011;1466;48.778;9.166;2023-05-09T03:07:42;39.13;;;19.40;;
2912;SDS011;1466;48.778;9.166;2023-05-09T03:10:08;34.97;;;19.40;;
2912;SDS011;1466;48.778;9.166;2023-05-09T03:12:36;39.42;;;19.15;;
2912;SDS011;1466;48.778;9.166;2023-05-09T03:15:03;51.42;;;22.48;;
2912;SDS011;1466;48.778;9.166;2023-05-09T03:17:32;38.20;;;20.13;;
2912;SDS011;1466;48.778;9.166;2023-05-09T03:19:58;42.77;;;20.33;;
2912;SDS011;1466;48.778;9.166;2023-05-09T03:22:24;61.83;;;21.60;;
2912;SDS011;1466;48.778;9.166;2023-05-09T03:24:49;44.37;;;21.97;;
2912;SDS011;1466;48.778;9.166;2023-05-09T03:27:15;32.00;;;18.70;;
2912;SDS011;1466;48.778;9.166;2023-05-09T03:29:40;40.73;;;20.17;;
2912;SDS011;1466;48.778;9.166;2023-05-09T03:32:06;40.73;;;19.03;;
2912;SDS011;1466;48.778;9.166;2023-05-09T03:34:32;43.17;;;20.57;;
2912;SDS011;1466;48.778;9.166;2023-05-09T03:36:58;48.23;;;20.03;;
2912;SDS011;1466;48.778;9.166;2023-05-09T03:39:23;41.97;;;20.00;;
2912;SDS011;1466;48.778;9.166;2023-05-09T03:41:49;37.60;;;19.93;;
2912;SDS011;1466;48.778;9.166;2023-05-09T03:44:14;38.40;;;19.07;;
2912;SDS011;1466;48.778;9.166;2023-05-09T03:46:40;39.30;;;20.17;;
2912;SDS011;1466;48.778;9.166;2023-05-09T03:49:05;43.53;;;21.03;;
2912;SDS011;1466;48.778;9.166;2023-05-09T03:51:31;37.73;;;19.30;;
2912;SDS011;1466;48.778;9.166;2023-05-09T03:53:57;43.50;;;22.50;;
2912;SDS011;1466;48.778;9.166;2023-05-09T03:56:22;42.77;;;20.13;;
2912;SDS011;1466;48.778;9.166;2023-05-09T03:58:48;55.37;;;23.77;;
2912;SDS011;1466;48.778;9.166;2023-05-09T04:01:14;38.33;;;20.60;;
2912;SDS011;1466;48.778;9.166;2023-05-09T04:03:40;43.73;;;21.20;;
2912;SDS011;1466;48.778;9.166;2023-05-09T04:06:06;42.13;;;19.67;;
2912;SDS011;1466;48.778;9.166;2023-05-09T04:08:32;41.87;;;21.43;;
2912;SDS011;1466;48.778;9.166;2023-05-09T04:10:57;40.37;;;19.43;;
2912;SDS011;1466;48.778;9.166;2023-05-09T04:13:23;47.10;;;20.97;;
2912;SDS011;1466;48.778;9.166;2023-05-09T04:15:49;40.97;;;20.73;;
2912;SDS011;1466;48.778;9.166;2023-05-09T04:18:15;36.65;;;19.38;;
2912;SDS011;1466;48.778;9.166;2023-05-09T04:20:40;39.57;;;19.67;;
2912;SDS011;1466;48.778;9.166;2023-05-09T04:23:06;41.73;;;20.13;;
2912;SDS011;1466;48.778;9.166;2023-05-09T04:25:32;37.77;;;19.60;;
2912;SDS011;1466;48.778;9.166;2023-05-09T04:27:58;47.58;;;20.02;;
2912;SDS011;1466;48.778;9.166;2023-05-09T04:30:24;44.20;;;18.87;;
2912;SDS011;1466;48.778;9.166;2023-05-09T04:32:53;45.25;;;18.75;;
2912;SDS011;1466;48.778;9.166;2023-05-09T04:35:19;45.95;;;19.42;;
2912;SDS011;1466;48.778;9.166;2023-05-09T04:37:45;40.57;;;17.23;;
2912;SDS011;1466;48.778;9.166;2023-05-09T04:40:11;47.00;;;20.77;;
2912;SDS011;1466;48.778;9.166;2023-05-09T04:42:37;37.67;;;18.58;;
2912;SDS011;1466;48.778;9.166;2023-05-09T04:45:03;37.20;;;19.08;;
2912;SDS011;1466;48.778;9.166;2023-05-09T04:47:30;37.42;;;18.33;;
2912;SDS011;1466;48.778;9.166;2023-05-09T04:49:55;48.70;;;21.17;;
2912;SDS011;1466;48.778;9.166;2023-05-09T04:52:21;40.97;;;19.67;;
2912;SDS011;1466;48.778;9.166;2023-05-09T04:54:47;38.00;;;17.57;;
2912;SDS011;1466;48.778;9.166;2023-05-09T04:57:12;39.23;;;17.90;;
2912;SDS011;1466;48.778;9.166;2023-05-09T04:59:38;41.60;;;17.50;;
2912;SDS011;1466;48.778;9.166;2023-05-09T05:02:04;40.30;;;18.10;;
2912;SDS011;1466;48.778;9.166;2023-05-09T05:04:32;44.65;;;17.48;;
2912;SDS011;1466;48.778;9.166;2023-05-09T05:06:58;36.97;;;17.37;;
2912;SDS011;1466;48.778;9.166;2023-05-09T05:09:23;45.40;;;19.00;;
2912;SDS011;1466;48.778;9.166;2023-05-09T05:11:49;36.57;;;17.60;;
2912;SDS011;1466;48.778;9.166;2023-05-09T05:14:14;51.73;;;20.70;;
2912;SDS011;1466;48.778;9.166;2023-05-09T05:16:40;36.27;;;16.43;;
2912;SDS011;1466;48.778;9.166;2023-05-09T05:19:05;35.90;;;17.80;;
2912;SDS011;1466;48.778;9.166;2023-05-09T05:21:31;35.87;;;16.97;;
2912;SDS011;1466;48.778;9.166;2023-05-09T05:23:57;40.13;;;18.93;;
2912;SDS011;1466;48.778;9.166;2023-05-09T05:26:22;45.87;;;18.80;;
2912;SDS011;1466;48.778;9.166;2023-05-09T05:28:49;42.47;;;18.65;;
2912;SDS011;1466;48.778;9.166;2023-05-09T05:31:19;49.67;;;19.98;;
2912;SDS011;1466;48.778;9.166;2023-05-09T05:33:45;44.88;;;20.40;;
2912;SDS011;1466;48.778;9.166;2023-05-09T05:36:11;54.00;;;21.90;;
2912;SDS011;1466;48.778;9.166;2023-05-09T05:38:36;42.63;;;21.50;;
2912;SDS011;1466;48.778;9.166;2023-05-09T05:41:02;47.47;;;22.33;;
2912;SDS011;1466;48.778;9.166;2023-05-09T05:43:27;52.17;;;21.57;;
2912;SDS011;1466;48.778;9.166;2023-05-09T05:45:53;44.13;;;20.63;;
2912;SDS011;1466;48.778;9.166;2023-05-09T05:48:19;53.28;;;21.73;;
2912;SDS011;1466;48.778;9.166;2023-05-09T05:50:45;39.17;;;19.37;;
2912;SDS011;1466;48.778;9.166;2023-05-09T05:53:10;40.47;;;19.27;;
2912;SDS011;1466;48.778;9.166;2023-05-09T05:55:36;33.37;;;20.03;;
2912;SDS011;1466;48.778;9.166;2023-05-09T05:58:01;40.60;;;19.40;;
2912;SDS011;1466;48.778;9.166;2023-05-09T06:00:27;45.07;;;21.67;;
2912;SDS011;1466;48.778;9.166;2023-05-09T06:02:53;52.92;;;22.52;;
2912;SDS011;1466;48.778;9.166;2023-05-09T06:05:19;42.37;;;20.40;;
2912;SDS011;1466;48.778;9.166;2023-05-09T06:07:45;41.13;;;18.63;;
2912;SDS011;1466;48.778;9.166;2023-05-09T06:10:10;44.87;;;21.70;;
2912;SDS011;1466;48.778;9.166;2023-05-09T06:12:36;37.63;;;18.90;;
2912;SDS011;1466;48.778;9.166;2023-05-09T06:15:02;47.50;;;19.93;;
2912;SDS011;1466;48.778;9.166;2023-05-09T06:17:29;48.47;;;21.52;;
2912;SDS011;1466;48.778;9.166;2023-05-09T06:19:55;35.60;;;17.63;;
2912;SDS011;1466;48.778;9.166;2023-05-09T06:22:20;47.90;;;20.77;;
2912;SDS011;1466;48.778;9.166;2023-05-09T06:24:46;37.70;;;19.10;;
2912;SDS011;1466;48.778;9.166;2023-05-09T06:27:12;51.10;;;20.93;;
2912;SDS011;1466;48.778;9.166;2023-05-09T06:29:37;46.20;;;19.93;;
2912;SDS011;1466;48.778;9.166;2023-05-09T06:32:03;36.83;;;19.13;;
2912;SDS011;1466;48.778;9.166;2023-05-09T06:34:29;39.08;;;18.60;;
2912;SDS011;1466;48.778;9.166;2023-05-09T06:36:54;57.70;;;23.57;;
2912;SDS011;1466;48.778;9.166;2023-05-09T06:39:20;56.83;;;20.67;;
2912;SDS011;1466;48.778;9.166;2023-05-09T06:41:46;44.00;;;21.07;;
2912;SDS011;1466;48.778;9.166;2023-05-09T06:44:11;48.57;;;20.83;;
2912;SDS011;1466;48.778;9.166;2023-05-09T06:46:37;39.07;;;19.67;;
2912;SDS011;1466;48.778;9.166;2023-05-09T06:49:02;46.03;;;21.17;;
2912;SDS011;1466;48.778;9.166;2023-05-09T06:51:30;39.35;;;20.20;;
2912;SDS011;1466;48.778;9.166;2023-05-09T06:53:56;46.97;;;20.60;;
2912;SDS011;1466;48.778;9.166;2023-05-09T06:56:21;48.27;;;21.73;;
2912;SDS011;1466;48.778;9.166;2023-05-09T06:58:48;51.00;;;22.17;;
2912;SDS011;1466;48.778;9.166;2023-05-09T07:01:14;50.17;;;21.25;;
2912;SDS011;1466;48.778;9.166;2023-05-09T07:03:41;53.55;;;21.52;;
2912;SDS011;1466;48.778;9.166;2023-05-09T07:06:07;45.30;;;19.87;;
2912;SDS011;1466;48.778;9.166;2023-05-09T07:08:32;40.97;;;18.70;;
2912;SDS011;1466;48.778;9.166;2023-05-09T07:10:58;36.73;;;18.87;;
2912;SDS011;1466;48.778;9.166;2023-05-09T07:13:24;40.37;;;19.80;;
2912;SDS011;1466;48.778;9.166;2023-05-09T07:15:49;44.60;;;20.00;;
2912;SDS011;1466;48.778;9.166;2023-05-09T07:18:15;54.47;;;22.53;;
2912;SDS011;1466;48.778;9.166;2023-05-09T07:20:40;51.60;;;20.20;;
2912;SDS011;1466;48.778;9.166;2023-05-09T07:23:06;55.10;;;21.67;;
2912;SDS011;1466;48.778;9.166;2023-05-09T07:25:31;44.30;;;19.77;;
2912;SDS011;1466;48.778;9.166;2023-05-09T07:27:57;40.37;;;19.73;;
2912;SDS011;1466;48.778;9.166;2023-05-09T07:30:23;37.37;;;18.33;;
2912;SDS011;1466;48.778;9.166;2023-05-09T07:32:49;36.00;;;18.10;;
2912;SDS011;1466;48.778;9.166;2023-05-09T07:35:15;33.27;;;13.67;;
2912;SDS011;1466;48.778;9.166;2023-05-09T07:37:41;46.97;;;19.40;;
2912;SDS011;1466;48.778;9.166;2023-05-09T07:40:07;29.33;;;15.57;;
2912;SDS011;1466;48.778;9.166;2023-05-09T07:42:33;31.47;;;14.70;;
2912;SDS011;1466;48.778;9.166;2023-05-09T07:44:59;38.10;;;17.90;;
2912;SDS011;1466;48.778;9.166;2023-05-09T07:47:25;38.47;;;17.33;;
2912;SDS011;1466;48.778;9.166;2023-05-09T07:49:50;38.10;;;17.40;;
2912;SDS011;1466;48.778;9.166;2023-05-09T07:52:16;24.27;;;13.37;;
2912;SDS011;1466;48.778;9.166;2023-05-09T07:54:42;38.30;;;16.63;;
2912;SDS011;1466;48.778;9.166;2023-05-09T07:57:08;24.30;;;14.40;;
2912;SDS011;1466;48.778;9.166;2023-05-09T07:59:34;33.23;;;14.40;;
2912;SDS011;1466;48.778;9.166;2023-05-09T08:01:59;29.40;;;14.03;;
2912;SDS011;1466;48.778;9.166;2023-05-09T08:04:25;34.10;;;14.20;;
2912;SDS011;1466;48.778;9.166;2023-05-09T08:06:51;24.23;;;11.57;;
2912;SDS011;1466;48.778;9.166;2023-05-09T08:09:16;28.93;;;11.70;;
2912;SDS011;1466;48.778;9.166;2023-05-09T08:11:42;35.53;;;14.53;;
2912;SDS011;1466;48.778;9.166;2023-05-09T08:14:08;32.20;;;14.17;;
2912;SDS011;1466;48.778;9.166;2023-05-09T08:16:34;33.03;;;15.00;;
2912;SDS011;1466;48.778;9.166;2023-05-09T08:19:00;28.87;;;13.80;;
2912;SDS011;1466;48.778;9.166;2023-05-09T08:21:25;29.40;;;14.07;;
2912;SDS011;1466;48.778;9.166;2023-05-09T08:23:51;27.13;;;14.37;;
2912;SDS011;1466;48.778;9.166;2023-05-09T08:26:17;31.53;;;14.60;;
2912;SDS011;1466;48.778;9.166;2023-05-09T08:28:42;53.57;;;18.77;;
2912;SDS011;1466;48.778;9.166;2023-05-09T08:31:08;40.23;;;16.60;;
2912;SDS011;1466;48.778;9.166;2023-05-09T08:33:34;26.40;;;14.10;;
2912;SDS011;1466;48.778;9.166;2023-05-09T08:35:59;26.03;;;13.20;;
2912;SDS011;1466;48.778;9.166;2023-05-09T08:38:25;27.57;;;13.13;;
2912;SDS011;1466;48.778;9.166;2023-05-09T08:40:52;26.50;;;13.00;;
2912;SDS011;1466;48.778;9.166;2023-05-09T08:43:23;34.80;;;15.10;;
2912;SDS011;1466;48.778;9.166;2023-05-09T08:45:53;27.23;;;13.20;;
2912;SDS011;1466;48.778;9.166;2023-05-09T08:48:22;31.60;;;15.53;;
2912;SDS011;1466;48.778;9.166;2023-05-09T08:50:48;24.57;;;12.53;;
2912;SDS011;1466;48.778;9.166;2023-05-09T08:53:14;26.30;;;12.37;;
2912;SDS011;1466;48.778;9.166;2023-05-09T08:55:40;25.13;;;11.87;;
2912;SDS011;1466;48.778;9.166;2023-05-09T08:58:06;35.77;;;14.60;;
2912;SDS011;1466;48.778;9.166;2023-05-09T09:00:33;28.77;;;14.43;;
2912;SDS011;1466;48.778;9.166;2023-05-09T09:03:01;32.37;;;15.77;;
2912;SDS011;1466;48.778;9.166;2023-05-09T09:05:29;30.63;;;13.63;;
2912;SDS011;1466;48.778;9.166;2023-05-09T09:07:56;31.80;;;14.93;;
2912;SDS011;1466;48.778;9.166;2023-05-09T09:10:23;31.90;;;15.47;;
2912;SDS011;1466;48.778;9.166;2023-05-09T09:12:52;34.90;;;14.63;;
2912;SDS011;1466;48.778;9.166;2023-05-09T09:15:21;36.67;;;16.40;;
2912;SDS011;1466;48.778;9.166;2023-05-09T09:17:49;28.60;;;13.93;;
2912;SDS011;1466;48.778;9.166;2023-05-09T09:20:15;31.73;;;14.13;;
2912;SDS011;1466;48.778;9.166;2023-05-09T09:22:45;32.17;;;13.83;;
2912;SDS011;1466;48.778;9.166;2023-05-09T09:25:12;44.73;;;17.43;;
2912;SDS011;1466;48.778;9.166;2023-05-09T09:27:37;47.10;;;16.97;;
2912;SDS011;1466;48.778;9.166;2023-05-09T09:30:06;35.63;;;15.80;;
2912;SDS011;1466;48.778;9.166;2023-05-09T09:32:32;31.53;;;15.83;;
2912;SDS011;1466;48.778;9.166;2023-05-09T09:35:05;43.43;;;17.57;;
2912;SDS011;1466;48.778;9.166;2023-05-09T09:37:32;36.90;;;14.97;;
2912;SDS011;1466;48.778;9.166;2023-05-09T09:39:59;32.77;;;14.50;;
2912;SDS011;1466;48.778;9.166;2023-05-09T09:42:25;37.57;;;14.43;;
2912;SDS011;1466;48.778;9.166;2023-05-09T09:45:03;27.80;;;12.70;;
2912;SDS011;1466;48.778;9.166;2023-05-09T09:47:34;20.20;;;11.27;;
2912;SDS011;1466;48.778;9.166;2023-05-09T09:50:16;23.10;;;11.50;;
2912;SDS011;1466;48.778;9.166;2023-05-09T09:52:43;22.70;;;10.83;;
2912;SDS011;1466;48.778;9.166;2023-05-09T09:55:20;32.37;;;16.43;;
2912;SDS011;1466;48.778;9.166;2023-05-09T09:57:47;24.27;;;10.50;;
2912;SDS011;1466;48.778;9.166;2023-05-09T10:00:13;25.03;;;12.07;;
2912;SDS011;1466;48.778;9.166;2023-05-09T10:02:50;36.50;;;13.23;;
2912;SDS011;1466;48.778;9.166;2023-05-09T10:07:57;36.63;;;13.27;;
2912;SDS011;1466;48.778;9.166;2023-05-09T10:10:30;22.67;;;12.20;;
2912;SDS011;1466;48.778;9.166;2023-05-09T10:12:59;33.27;;;13.43;;
2912;SDS011;1466;48.778;9.166;2023-05-09T10:15:30;33.97;;;14.53;;
2912;SDS011;1466;48.778;9.166;2023-05-09T10:17:57;48.07;;;15.60;;
2912;SDS011;1466;48.778;9.166;2023-05-09T10:20:25;27.30;;;13.67;;
2912;SDS011;1466;48.778;9.166;2023-05-09T10:22:56;31.13;;;15.20;;
2912;SDS011;1466;48.778;9.166;2023-05-09T10:25:37;27.10;;;13.63;;
2912;SDS011;1466;48.778;9.166;2023-05-09T10:28:05;33.97;;;14.00;;
2912;SDS011;1466;48.778;9.166;2023-05-09T10:30:38;32.57;;;14.10;;
2912;SDS011;1466;48.778;9.166;2023-05-09T10:33:23;41.77;;;15.30;;
2912;SDS011;1466;48.778;9.166;2023-05-09T10:35:55;32.27;;;14.40;;
2912;SDS011;1466;48.778;9.166;2023-05-09T10:38:23;33.73;;;14.60;;
2912;SDS011;1466;48.778;9.166;2023-05-09T10:40:49;43.67;;;16.97;;
2912;SDS011;1466;48.778;9.166;2023-05-09T10:43:17;39.47;;;17.03;;
2912;SDS011;1466;48.778;9.166;2023-05-09T10:45:45;27.07;;;13.00;;
2912;SDS011;1466;48.778;9.166;2023-05-09T10:48:11;23.77;;;13.33;;
2912;SDS011;1466;48.778;9.166;2023-05-09T10:50:37;30.50;;;14.20;;
2912;SDS011;1466;48.778;9.166;2023-05-09T11:00:46;35.30;;;15.00;;
2912;SDS011;1466;48.778;9.166;2023-05-09T11:03:13;30.17;;;13.77;;
2912;SDS011;1466;48.778;9.166;2023-05-09T11:05:39;35.60;;;13.93;;
2912;SDS011;1466;48.778;9.166;2023-05-09T11:08:24;27.80;;;13.03;;
2912;SDS011;1466;48.778;9.166;2023-05-09T11:10:50;37.67;;;15.07;;
2912;SDS011;1466;48.778;9.166;2023-05-09T11:13:21;39.73;;;14.90;;
2912;SDS011;1466;48.778;9.166;2023-05-09T11:18:26;28.67;;;13.60;;
2912;SDS011;1466;48.778;9.166;2023-05-09T11:20:52;35.67;;;13.97;;
2912;SDS011;1466;48.778;9.166;2023-05-09T11:23:19;25.37;;;12.10;;
2912;SDS011;1466;48.778;9.166;2023-05-09T11:25:47;40.60;;;13.60;;
2912;SDS011;1466;48.778;9.166;2023-05-09T11:28:29;36.50;;;13.70;;
2912;SDS011;1466;48.778;9.166;2023-05-09T11:33:41;35.60;;;11.73;;
2912;SDS011;1466;48.778;9.166;2023-05-09T11:36:18;20.27;;;9.50;;
2912;SDS011;1466;48.778;9.166;2023-05-09T11:39:10;26.20;;;10.17;;
2912;SDS011;1466;48.778;9.166;2023-05-09T11:41:37;20.00;;;8.60;;
2912;SDS011;1466;48.778;9.166;2023-05-09T11:44:11;19.53;;;8.43;;
2912;SDS011;1466;48.778;9.166;2023-05-09T11:46:46;30.33;;;10.57;;
2912;SDS011;1466;48.778;9.166;2023-05-09T11:49:12;19.60;;;8.50;;
2912;SDS011;1466;48.778;9.166;2023-05-09T11:51:38;23.77;;;9.80;;
2912;SDS011;1466;48.778;9.166;2023-05-09T11:54:07;34.10;;;10.27;;
2912;SDS011;1466;48.778;9.166;2023-05-09T11:56:34;21.63;;;9.23;;
2912;SDS011;1466;48.778;9.166;2023-05-09T11:59:01;20.67;;;8.13;;
2912;SDS011;1466;48.778;9.166;2023-05-09T12:01:30;33.97;;;10.17;;
2912;SDS011;1466;48.778;9.166;2023-05-09T12:03:56;14.77;;;6.93;;
2912;SDS011;1466;48.778;9.166;2023-05-09T12:06:23;15.47;;;7.67;;
2912;SDS011;1466;48.778;9.166;2023-05-09T12:08:50;18.43;;;8.07;;
2912;SDS011;1466;48.778;9.166;2023-05-09T12:11:16;21.33;;;8.07;;
2912;SDS011;1466;48.778;9.166;2023-05-09T12:13:49;13.57;;;6.63;;
2912;SDS011;1466;48.778;9.166;2023-05-09T12:16:16;21.27;;;7.73;;
2912;SDS011;1466;48.778;9.166;2023-05-09T12:18:46;20.33;;;8.77;;
2912;SDS011;1466;48.778;9.166;2023-05-09T12:21:16;17.70;;;7.93;;
2912;SDS011;1466;48.778;9.166;2023-05-09T12:23:43;17.13;;;7.37;;
2912;SDS011;1466;48.778;9.166;2023-05-09T12:26:09;23.33;;;8.97;;
2912;SDS011;1466;48.778;9.166;2023-05-09T12:28:35;22.20;;;8.50;;
2912;SDS011;1466;48.778;9.166;2023-05-09T12:31:00;23.47;;;9.00;;
2912;SDS011;1466;48.778;9.166;2023-05-09T12:33:27;26.17;;;9.27;;
2912;SDS011;1466;48.778;9.166;2023-05-09T12:38:35;14.57;;;6.77;;
2912;SDS011;1466;48.778;9.166;2023-05-09T12:41:02;20.73;;;7.53;;
2912;SDS011;1466;48.778;9.166;2023-05-09T12:43:29;18.23;;;7.60;;
2912;SDS011;1466;48.778;9.166;2023-05-09T12:45:56;22.90;;;8.10;;
2912;SDS011;1466;48.778;9.166;2023-05-09T12:48:23;17.90;;;6.70;;
2912;SDS011;1466;48.778;9.166;2023-05-09T12:50:49;20.43;;;7.87;;
2912;SDS011;1466;48.778;9.166;2023-05-09T12:53:25;27.87;;;8.90;;
2912;SDS011;1466;48.778;9.166;2023-05-09T12:55:53;23.67;;;8.53;;
2912;SDS011;1466;48.778;9.166;2023-05-09T12:58:20;22.17;;;8.03;;
2912;SDS011;1466;48.778;9.166;2023-05-09T13:00:46;20.40;;;7.97;;
2912;SDS011;1466;48.778;9.166;2023-05-09T13:03:21;29.63;;;9.43;;
2912;SDS011;1466;48.778;9.166;2023-05-09T13:08:25;20.10;;;7.77;;
2912;SDS011;1466;48.778;9.166;2023-05-09T13:10:51;22.63;;;7.87;;
2912;SDS011;1466;48.778;9.166;2023-05-09T13:13:17;20.00;;;7.80;;
2912;SDS011;1466;48.778;9.166;2023-05-09T13:15:44;12.90;;;6.40;;
2912;SDS011;1466;48.778;9.166;2023-05-09T13:18:10;14.93;;;6.50;;
2912;SDS011;1466;48.778;9.166;2023-05-09T13:20:36;26.77;;;8.63;;
2912;SDS011;1466;48.778;9.166;2023-05-09T13:23:02;15.77;;;7.73;;
2912;SDS011;1466;48.778;9.166;2023-05-09T13:25:28;17.67;;;7.60;;
2912;SDS011;1466;48.778;9.166;2023-05-09T13:27:54;20.90;;;8.13;;
2912;SDS011;1466;48.778;9.166;2023-05-09T13:30:19;14.33;;;6.77;;
2912;SDS011;1466;48.778;9.166;2023-05-09T13:32:45;16.13;;;7.80;;
2912;SDS011;1466;48.778;9.166;2023-05-09T13:35:11;17.57;;;7.03;;
2912;SDS011;1466;48.778;9.166;2023-05-09T13:37:37;17.13;;;7.00;;
2912;SDS011;1466;48.778;9.166;2023-05-09T13:40:03;21.33;;;8.17;;
2912;SDS011;1466;48.778;9.166;2023-05-09T13:42:29;23.23;;;8.83;;
2912;SDS011;1466;48.778;9.166;2023-05-09T13:44:55;27.93;;;9.37;;
2912;SDS011;1466;48.778;9.166;2023-05-09T13:47:21;26.07;;;9.03;;
2912;SDS011;1466;48.778;9.166;2023-05-09T13:49:46;54.67;;;13.50;;
2912;SDS011;1466;48.778;9.166;2023-05-09T13:52:12;26.67;;;9.23;;
2912;SDS011;1466;48.778;9.166;2023-05-09T13:54:40;26.90;;;9.00;;
2912;SDS011;1466;48.778;9.166;2023-05-09T13:57:08;16.20;;;7.33;;
2912;SDS011;1466;48.778;9.166;2023-05-09T13:59:34;17.50;;;7.67;;
2912;SDS011;1466;48.778;9.166;2023-05-09T14:02:00;21.37;;;8.60;;
2912;SDS011;1466;48.778;9.166;2023-05-09T14:04:26;20.43;;;8.70;;
2912;SDS011;1466;48.778;9.166;2023-05-09T14:06:52;19.83;;;7.80;;
2912;SDS011;1466;48.778;9.166;2023-05-09T14:09:22;25.53;;;8.80;;
2912;SDS011;1466;48.778;9.166;2023-05-09T14:11:48;29.27;;;9.00;;
2912;SDS011;1466;48.778;9.166;2023-05-09T14:14:17;19.53;;;7.40;;
2912;SDS011;1466;48.778;9.166;2023-05-09T14:16:44;23.80;;;8.27;;
2912;SDS011;1466;48.778;9.166;2023-05-09T14:19:09;34.57;;;10.13;;
2912;SDS011;1466;48.778;9.166;2023-05-09T14:21:36;15.03;;;7.00;;
2912;SDS011;1466;48.778;9.166;2023-05-09T14:24:01;23.20;;;9.10;;
2912;SDS011;1466;48.778;9.166;2023-05-09T14:26:27;30.67;;;9.60;;
2912;SDS011;1466;48.778;9.166;2023-05-09T14:28:53;30.77;;;9.50;;
2912;SDS011;1466;48.778;9.166;2023-05-09T14:31:18;32.93;;;10.27;;
2912;SDS011;1466;48.778;9.166;2023-05-09T14:33:44;25.97;;;9.00;;
2912;SDS011;1466;48.778;9.166;2023-05-09T14:36:10;25.37;;;8.60;;
2912;SDS011;1466;48.778;9.166;2023-05-09T14:38:36;36.63;;;10.20;;
2912;SDS011;1466;48.778;9.166;2023-05-09T14:41:02;17.37;;;7.00;;
2912;SDS011;1466;48.778;9.166;2023-05-09T14:43:28;32.23;;;9.03;;
2912;SDS011;1466;48.778;9.166;2023-05-09T14:45:53;22.73;;;7.70;;
2912;SDS011;1466;48.778;9.166;2023-05-09T14:48:19;25.03;;;7.90;;
2912;SDS011;1466;48.778;9.166;2023-05-09T14:50:45;13.80;;;5.80;;
2912;SDS011;1466;48.778;9.166;2023-05-09T14:53:11;21.20;;;8.20;;
2912;SDS011;1466;48.778;9.166;2023-05-09T14:55:37;28.80;;;8.40;;
2912;SDS011;1466;48.778;9.166;2023-05-09T14:58:03;25.60;;;8.60;;
2912;SDS011;1466;48.778;9.166;2023-05-09T15:00:28;15.70;;;6.47;;
2912;SDS011;1466;48.778;9.166;2023-05-09T15:02:54;23.87;;;8.20;;
2912;SDS011;1466;48.778;9.166;2023-05-09T15:05:20;29.30;;;9.27;;
2912;SDS011;1466;48.778;9.166;2023-05-09T15:07:45;21.50;;;7.60;;
2912;SDS011;1466;48.778;9.166;2023-05-09T15:10:11;19.00;;;7.37;;
2912;SDS011;1466;48.778;9.166;2023-05-09T15:12:37;26.97;;;8.77;;
2912;SDS011;1466;48.778;9.166;2023-05-09T15:15:15;14.60;;;6.00;;
2912;SDS011;1466;48.778;9.166;2023-05-09T15:17:42;19.57;;;7.43;;
2912;SDS011;1466;48.778;9.166;2023-05-09T15:20:09;25.90;;;8.17;;
2912;SDS011;1466;48.778;9.166;2023-05-09T15:22:35;22.90;;;7.37;;